Time;durP1;ratioP1;P1;durP2;ratioP2;P2;SDS_P1;SDS_P2;PMS_P1;PMS_P2;Temp;Humidity;BMP_temperature;BMP_pressure;BME280_temperature;BME280_humidity;BME280_pressure;Samples;Min_cycle;Max_cycle;Signal;HPM_P1;HPM_P2
2022/01/07 00:00:32;;;;;;;3.33;0.85;;;25.80;99.90;;;;;;4971938;28;20035;-79
2022/01/07 00:03:00;;;;;;;3.83;1.30;;;26.00;99.90;;;;;;4967752;28;20477;-77
2022/01/07 00:05:28;;;;;;;2.08;0.93;;;26.30;99.90;;;;;;4972844;28;20114;-75
2022/01/07 00:07:55;;;;;;;1.88;1.02;;;26.50;99.90;;;;;;4971179;28;20031;-79
2022/01/07 00:10:23;;;;;;;2.28;1.90;;;26.60;99.90;;;;;;4969907;28;20129;-79
2022/01/07 00:12:51;;;;;;;2.88;1.05;;;26.70;99.90;;;;;;4967231;28;20023;-77
2022/01/07 00:15:19;;;;;;;0.60;0.50;;;26.90;99.90;;;;;;4965917;28;20096;-75
2022/01/07 00:17:47;;;;;;;4.03;1.38;;;27.10;99.90;;;;;;4965180;28;20027;-76
2022/01/07 00:20:15;;;;;;;2.95;0.90;;;27.10;99.90;;;;;;4963648;28;20034;-77
2022/01/07 00:22:44;;;;;;;2.03;0.50;;;27.00;99.90;;;;;;4965650;28;20042;-75
2022/01/07 00:25:13;;;;;;;2.17;1.02;;;27.00;99.90;;;;;;4969145;28;20970;-75
2022/01/07 00:27:41;;;;;;;3.28;0.90;;;27.00;99.90;;;;;;4970003;28;20030;-75
2022/01/07 00:30:13;;;;;;;3.85;1.50;;;27.00;99.90;;;;;;4969166;28;20031;-72
2022/01/07 00:32:40;;;;;;;2.95;1.45;;;26.90;99.90;;;;;;4968056;28;20027;-75
2022/01/07 00:35:09;;;;;;;4.60;1.67;;;26.90;99.90;;;;;;4969887;28;20096;-76
2022/01/07 00:37:37;;;;;;;2.40;1.50;;;26.90;99.90;;;;;;4959010;28;20033;-75
2022/01/07 00:40:06;;;;;;;2.63;1.10;;;27.00;99.90;;;;;;4977333;28;20037;-75
2022/01/07 00:42:34;;;;;;;2.38;1.52;;;27.20;99.90;;;;;;4972692;28;20029;-78
2022/01/07 00:45:02;;;;;;;5.43;2.15;;;27.50;99.90;;;;;;4971140;28;20045;-77
2022/01/07 00:47:29;;;;;;;4.07;1.60;;;27.90;99.90;;;;;;4979846;28;20117;-77
2022/01/07 00:49:58;;;;;;;3.22;1.80;;;28.40;99.90;;;;;;4971542;28;20031;-75
2022/01/07 00:52:25;;;;;;;4.13;1.70;;;28.70;99.90;;;;;;4969954;28;20165;-76
2022/01/07 00:54:53;;;;;;;5.95;2.85;;;29.30;99.90;;;;;;4969251;28;20026;-73
2022/01/07 00:57:20;;;;;;;6.20;3.28;;;29.70;99.90;;;;;;4963091;28;20054;-75
2022/01/07 00:59:48;;;;;;;4.85;2.17;;;29.70;99.90;;;;;;4966571;28;20015;-79
2022/01/07 01:02:16;;;;;;;4.88;2.38;;;29.50;99.90;;;;;;4963469;28;20027;-80
2022/01/07 01:04:46;;;;;;;3.80;2.80;;;29.30;99.90;;;;;;4963961;28;20047;-77
2022/01/07 01:07:15;;;;;;;4.10;2.83;;;29.60;99.90;;;;;;4969910;28;20027;-79
2022/01/07 01:09:43;;;;;;;6.97;3.78;;;29.90;99.90;;;;;;4973885;28;20061;-79
2022/01/07 01:12:12;;;;;;;7.28;3.45;;;30.20;99.90;;;;;;4965652;28;20109;-77
2022/01/07 01:14:39;;;;;;;5.93;3.53;;;30.00;99.90;;;;;;4973906;28;20568;-78
2022/01/07 01:17:08;;;;;;;5.20;3.80;;;30.10;99.90;;;;;;4967560;28;20113;-76
2022/01/07 01:19:36;;;;;;;6.22;4.00;;;30.30;99.90;;;;;;4969535;28;20030;-81
2022/01/07 01:22:04;;;;;;;6.25;4.20;;;30.20;99.90;;;;;;4971425;28;20034;-78
2022/01/07 01:24:32;;;;;;;6.18;4.35;;;29.90;99.90;;;;;;4972368;28;20059;-78
2022/01/07 01:26:59;;;;;;;6.93;3.97;;;29.90;99.90;;;;;;4968960;28;20106;-78
2022/01/07 01:29:27;;;;;;;4.55;3.58;;;29.60;99.90;;;;;;4967234;28;20065;-74
2022/01/07 01:31:54;;;;;;;7.65;3.60;;;29.60;99.90;;;;;;4963240;28;20033;-76
2022/01/07 01:34:22;;;;;;;7.60;4.40;;;29.40;99.90;;;;;;4981418;28;20368;-75
2022/01/07 01:36:49;;;;;;;8.48;4.80;;;29.20;99.90;;;;;;4967032;28;20071;-75
2022/01/07 01:39:16;;;;;;;7.45;5.53;;;28.90;99.90;;;;;;4966830;28;20034;-75
2022/01/07 01:41:44;;;;;;;6.78;4.60;;;28.80;99.90;;;;;;4954041;28;20479;-75
2022/01/07 01:44:12;;;;;;;6.45;4.45;;;28.70;99.90;;;;;;4966193;28;20023;-76
2022/01/07 01:46:39;;;;;;;7.63;5.63;;;28.40;99.90;;;;;;4969844;28;20053;-76
2022/01/07 01:49:07;;;;;;;6.53;4.80;;;28.10;99.90;;;;;;4959414;28;20031;-77
2022/01/07 01:51:35;;;;;;;7.25;4.80;;;27.80;99.90;;;;;;4984835;28;20031;-76
2022/01/07 01:54:04;;;;;;;7.68;5.15;;;27.70;99.90;;;;;;4965735;28;20414;-76
2022/01/07 01:56:32;;;;;;;10.00;5.30;;;27.60;99.90;;;;;;4962570;28;20038;-72
2022/01/07 01:58:59;;;;;;;6.65;4.50;;;27.70;99.90;;;;;;4963749;28;20052;-74
2022/01/07 02:01:27;;;;;;;6.82;4.80;;;27.70;99.90;;;;;;4969158;28;20030;-72
2022/01/07 02:03:55;;;;;;;7.10;4.32;;;27.60;99.90;;;;;;4970502;28;20064;-74
2022/01/07 02:06:23;;;;;;;5.50;4.97;;;27.50;99.90;;;;;;4964930;28;20039;-73
2022/01/07 02:08:51;;;;;;;8.35;4.97;;;27.40;99.90;;;;;;4967016;28;20104;-74
2022/01/07 02:11:19;;;;;;;7.72;4.65;;;27.50;99.90;;;;;;4972389;28;20026;-74
2022/01/07 02:13:48;;;;;;;6.45;4.40;;;27.80;99.90;;;;;;4967255;28;20030;-74
2022/01/07 02:16:16;;;;;;;5.93;4.70;;;28.30;99.90;;;;;;4968967;28;20784;-75
2022/01/07 02:18:44;;;;;;;7.35;4.70;;;28.80;99.90;;;;;;4964869;28;20034;-77
2022/01/07 02:21:13;;;;;;;10.68;4.82;;;29.30;99.90;;;;;;4969552;28;20027;-78
2022/01/07 02:23:41;;;;;;;11.70;5.32;;;29.70;99.90;;;;;;4962463;28;20050;-78
2022/01/07 02:26:10;;;;;;;10.70;5.72;;;29.70;99.90;;;;;;4973742;28;20051;-75
2022/01/07 02:28:38;;;;;;;10.38;6.20;;;29.50;99.90;;;;;;4967647;28;20035;-75
2022/01/07 02:31:05;;;;;;;8.95;4.90;;;29.10;99.90;;;;;;4969137;28;20031;-73
2022/01/07 02:33:33;;;;;;;10.38;5.93;;;28.50;99.90;;;;;;4973692;28;20038;-76
2022/01/07 02:36:10;;;;;;;14.80;4.55;;;28.30;99.90;;;;;;4981150;28;20410;-80
2022/01/07 02:38:38;;;;;;;14.70;4.72;;;27.90;99.90;;;;;;4982022;28;20710;-81
2022/01/07 02:41:06;;;;;;;12.52;6.63;;;27.60;99.90;;;;;;4984046;28;20038;-79
2022/01/07 02:43:33;;;;;;;10.02;5.57;;;27.50;99.90;;;;;;4979786;28;20027;-75
2022/01/07 02:46:00;;;;;;;9.95;5.57;;;27.30;99.90;;;;;;4987652;28;20798;-74
2022/01/07 02:48:28;;;;;;;11.98;6.07;;;27.40;99.90;;;;;;4974655;28;20042;-78
2022/01/07 02:50:56;;;;;;;14.52;5.18;;;27.50;99.90;;;;;;4976818;28;20513;-78
2022/01/07 02:53:24;;;;;;;16.08;6.40;;;27.50;99.90;;;;;;4974253;28;20050;-79
2022/01/07 02:55:51;;;;;;;13.63;5.95;;;27.70;99.90;;;;;;4972627;28;20113;-78
2022/01/07 02:58:18;;;;;;;8.68;5.18;;;27.80;99.90;;;;;;4973489;28;20038;-82
2022/01/07 03:00:46;;;;;;;16.42;6.13;;;27.80;99.90;;;;;;4974629;28;20466;-77
2022/01/07 03:03:13;;;;;;;9.57;4.97;;;27.90;99.90;;;;;;4973026;28;20023;-79
2022/01/07 03:05:42;;;;;;;15.73;6.25;;;28.20;99.90;;;;;;4977038;28;20176;-75
2022/01/07 03:08:10;;;;;;;9.27;5.50;;;28.40;99.90;;;;;;4975681;28;20035;-73
2022/01/07 03:10:38;;;;;;;10.75;5.18;;;28.40;99.90;;;;;;4973573;28;20026;-76
2022/01/07 03:13:06;;;;;;;8.75;4.70;;;28.40;99.90;;;;;;4971119;28;20039;-81
2022/01/07 03:15:37;;;;;;;11.73;4.97;;;28.30;99.90;;;;;;4964957;28;20092;-79
2022/01/07 03:18:07;;;;;;;8.82;5.45;;;28.30;99.90;;;;;;4975582;28;20098;-75
2022/01/07 03:20:38;;;;;;;10.85;5.63;;;28.30;99.90;;;;;;4970792;28;20101;-79
2022/01/07 03:23:12;;;;;;;12.00;5.47;;;28.40;99.90;;;;;;4968195;28;20468;-74
2022/01/07 03:25:46;;;;;;;10.02;5.25;;;28.50;99.90;;;;;;4975826;28;20061;-74
2022/01/07 03:28:13;;;;;;;9.77;4.75;;;28.60;99.90;;;;;;4966694;28;20117;-74
2022/01/07 03:30:41;;;;;;;9.98;5.90;;;28.70;99.90;;;;;;4971799;28;20092;-73
2022/01/07 03:33:08;;;;;;;11.68;5.30;;;28.80;99.90;;;;;;4972596;28;20576;-76
2022/01/07 03:35:36;;;;;;;11.13;5.68;;;28.90;99.90;;;;;;4967735;28;20469;-76
2022/01/07 03:38:04;;;;;;;11.73;6.20;;;29.00;99.90;;;;;;4976523;28;20470;-71
2022/01/07 03:40:32;;;;;;;12.60;6.68;;;28.90;99.90;;;;;;4972315;28;20030;-74
2022/01/07 03:43:00;;;;;;;14.02;6.57;;;28.80;99.90;;;;;;4971635;28;20027;-77
2022/01/07 03:45:28;;;;;;;15.45;6.57;;;28.70;99.90;;;;;;4973610;28;20026;-74
2022/01/07 03:47:56;;;;;;;16.83;6.55;;;29.00;99.90;;;;;;4967522;28;20407;-75
2022/01/07 03:50:26;;;;;;;10.48;5.97;;;29.40;99.90;;;;;;4971838;28;20022;-72
2022/01/07 03:52:55;;;;;;;10.30;6.05;;;29.60;99.90;;;;;;4971677;28;20132;-79
2022/01/07 03:55:26;;;;;;;12.57;6.07;;;29.70;99.90;;;;;;4972425;28;20122;-78
2022/01/07 03:57:54;;;;;;;12.38;6.25;;;30.20;99.90;;;;;;4972743;28;20023;-76
2022/01/07 04:00:33;;;;;;;12.38;5.90;;;30.30;99.90;;;;;;4970328;28;20037;-75
2022/01/07 04:03:13;;;;;;;10.80;5.95;;;30.30;99.90;;;;;;4970234;28;20089;-74
2022/01/07 04:05:40;;;;;;;15.38;4.95;;;30.40;99.90;;;;;;4976969;28;20133;-75
2022/01/07 04:08:08;;;;;;;10.60;5.57;;;30.60;99.90;;;;;;4973984;28;20609;-76
2022/01/07 04:10:36;;;;;;;13.02;5.85;;;30.90;99.90;;;;;;4971833;28;20486;-74
2022/01/07 04:13:04;;;;;;;11.68;5.18;;;30.70;99.90;;;;;;4970097;28;20035;-76
2022/01/07 04:15:32;;;;;;;14.80;5.00;;;30.40;99.90;;;;;;4985656;28;20054;-76
2022/01/07 04:17:59;;;;;;;6.55;4.07;;;30.00;99.90;;;;;;4977135;28;20031;-74
2022/01/07 04:20:30;;;;;;;11.60;4.53;;;29.80;99.90;;;;;;4983046;28;20030;-74
2022/01/07 04:22:58;;;;;;;11.18;5.40;;;29.60;99.90;;;;;;4978957;28;20047;-75
2022/01/07 04:25:26;;;;;;;13.68;5.10;;;29.50;99.90;;;;;;4973949;28;20042;-75
2022/01/07 04:28:03;;;;;;;13.00;3.90;;;29.40;99.90;;;;;;4975603;28;20073;-72
2022/01/07 04:30:34;;;;;;;9.45;4.72;;;29.20;99.90;;;;;;4975114;28;20508;-75
2022/01/07 04:33:03;;;;;;;15.65;5.72;;;29.10;99.90;;;;;;4971835;28;20042;-75
2022/01/07 04:35:32;;;;;;;14.15;5.03;;;29.00;99.90;;;;;;4974812;28;20035;-75
2022/01/07 04:38:00;;;;;;;11.90;5.28;;;28.90;99.90;;;;;;4971151;28;20035;-74
2022/01/07 04:40:27;;;;;;;9.63;5.03;;;28.80;99.90;;;;;;4971273;28;20110;-74
2022/01/07 04:42:55;;;;;;;7.88;5.00;;;28.70;99.90;;;;;;4978626;28;20031;-76
2022/01/07 04:45:22;;;;;;;12.70;5.35;;;28.60;99.90;;;;;;4975336;28;20042;-81
2022/01/07 04:47:50;;;;;;;13.98;5.82;;;28.60;99.90;;;;;;4980000;28;20033;-77
2022/01/07 04:50:22;;;;;;;14.85;6.13;;;28.60;99.90;;;;;;4974420;28;20022;-74
2022/01/07 04:52:50;;;;;;;12.23;5.38;;;28.80;99.90;;;;;;4969400;28;20101;-74
2022/01/07 04:55:21;;;;;;;8.15;4.25;;;28.80;99.90;;;;;;4977828;28;20137;-73
2022/01/07 04:57:49;;;;;;;13.25;4.32;;;28.80;99.90;;;;;;4969528;28;20188;-78
2022/01/07 05:00:20;;;;;;;14.40;3.80;;;28.80;99.90;;;;;;4973593;28;20261;-77
2022/01/07 05:02:48;;;;;;;10.27;3.25;;;28.70;99.90;;;;;;4970135;28;20181;-73
2022/01/07 05:05:15;;;;;;;9.15;3.75;;;28.60;99.90;;;;;;4966146;28;20045;-75
2022/01/07 05:07:43;;;;;;;9.27;3.55;;;28.50;99.90;;;;;;4966348;28;20027;-77
2022/01/07 05:10:12;;;;;;;12.60;5.15;;;28.50;99.90;;;;;;4971220;28;20053;-80
2022/01/07 05:12:42;;;;;;;8.85;3.80;;;28.50;99.90;;;;;;4971128;28;20137;-77
2022/01/07 05:15:11;;;;;;;14.38;5.55;;;28.60;99.90;;;;;;4973137;28;20019;-76
2022/01/07 05:17:39;;;;;;;9.95;4.03;;;28.60;99.90;;;;;;4970350;28;20027;-76
2022/01/07 05:20:07;;;;;;;6.80;4.00;;;28.90;99.90;;;;;;4971267;28;20374;-84
2022/01/07 05:22:34;;;;;;;13.88;5.45;;;29.20;99.90;;;;;;4970103;28;20043;-77
2022/01/07 05:25:03;;;;;;;10.02;4.00;;;29.60;99.90;;;;;;4972022;28;20521;-72
2022/01/07 05:27:31;;;;;;;11.80;4.10;;;29.60;99.90;;;;;;4968064;28;20113;-75
2022/01/07 05:29:58;;;;;;;11.65;3.85;;;29.30;99.90;;;;;;4971462;28;20045;-79
2022/01/07 05:32:25;;;;;;;9.63;3.25;;;29.20;99.90;;;;;;4968930;28;20399;-78
2022/01/07 05:34:53;;;;;;;10.63;3.58;;;29.40;99.90;;;;;;4971970;28;20508;-78
2022/01/07 05:37:20;;;;;;;12.52;4.07;;;29.80;99.90;;;;;;4975716;28;20089;-76
2022/01/07 05:39:47;;;;;;;6.97;3.17;;;29.90;99.90;;;;;;4969086;28;20075;-79
2022/01/07 05:42:15;;;;;;;11.05;4.13;;;29.90;99.90;;;;;;4969891;28;20027;-79
2022/01/07 05:44:42;;;;;;;9.10;4.15;;;29.80;99.90;;;;;;4969445;28;20461;-77
2022/01/07 05:47:10;;;;;;;16.88;4.15;;;29.60;99.90;;;;;;4978998;28;20030;-79
2022/01/07 05:49:37;;;;;;;12.27;3.55;;;29.40;99.90;;;;;;4985859;28;20060;-77
2022/01/07 05:52:05;;;;;;;10.52;3.47;;;29.40;99.90;;;;;;4972034;28;20031;-79
2022/01/07 05:54:33;;;;;;;9.25;3.92;;;29.40;99.90;;;;;;4968841;28;20042;-79
2022/01/07 05:57:01;;;;;;;14.07;4.00;;;29.50;99.90;;;;;;4962161;28;20033;-77
2022/01/07 05:59:28;;;;;;;9.80;3.58;;;29.40;99.90;;;;;;4969083;28;20146;-78
2022/01/07 06:01:55;;;;;;;5.47;3.42;;;29.40;99.90;;;;;;4965803;28;20023;-76
2022/01/07 06:04:23;;;;;;;14.40;3.33;;;29.20;99.90;;;;;;4963512;28;20397;-74
2022/01/07 06:06:50;;;;;;;11.27;2.95;;;29.10;99.90;;;;;;4964857;28;20031;-75
2022/01/07 06:09:17;;;;;;;8.13;3.75;;;28.80;99.90;;;;;;4962468;28;21323;-77
2022/01/07 06:11:45;;;;;;;13.45;3.55;;;28.60;99.90;;;;;;4968762;28;20034;-76
2022/01/07 06:14:12;;;;;;;10.38;3.17;;;28.70;99.90;;;;;;4963778;28;20035;-76
2022/01/07 06:16:40;;;;;;;14.10;3.45;;;28.50;99.90;;;;;;4962057;28;20027;-74
2022/01/07 06:19:07;;;;;;;13.63;3.55;;;28.40;99.90;;;;;;4962689;28;20419;-77
2022/01/07 06:21:34;;;;;;;12.10;2.90;;;28.10;99.90;;;;;;4966538;28;20054;-78
2022/01/07 06:24:02;;;;;;;9.73;3.33;;;28.10;99.90;;;;;;4967901;28;20497;-77
2022/01/07 06:26:29;;;;;;;10.27;3.28;;;28.20;99.90;;;;;;4967844;28;20486;-74
2022/01/07 06:28:56;;;;;;;14.13;3.88;;;28.20;99.90;;;;;;4971126;28;20101;-76
2022/01/07 06:31:24;;;;;;;12.80;3.42;;;28.10;99.90;;;;;;4967084;28;20031;-78
2022/01/07 06:33:51;;;;;;;17.77;3.28;;;28.00;99.90;;;;;;4962714;28;20034;-72
2022/01/07 06:36:19;;;;;;;11.75;3.70;;;28.00;99.90;;;;;;4965905;28;20050;-74
2022/01/07 06:38:46;;;;;;;17.35;3.60;;;28.00;99.90;;;;;;4969940;28;20027;-72
2022/01/07 06:41:13;;;;;;;13.13;3.00;;;28.10;99.90;;;;;;4969938;28;20015;-73
2022/01/07 06:43:41;;;;;;;11.07;3.00;;;28.10;99.90;;;;;;4960561;28;20367;-73
2022/01/07 06:46:08;;;;;;;20.98;3.55;;;28.10;99.90;;;;;;4965846;28;20106;-74
2022/01/07 06:48:36;;;;;;;14.65;4.95;;;28.20;99.90;;;;;;4961079;28;20047;-74
2022/01/07 06:51:03;;;;;;;15.55;3.40;;;28.10;99.90;;;;;;4967645;28;20442;-73
2022/01/07 06:53:30;;;;;;;12.02;3.40;;;27.90;99.90;;;;;;4967697;28;20093;-74
2022/01/07 06:55:58;;;;;;;9.05;3.13;;;27.80;99.90;;;;;;4981783;28;20034;-73
2022/01/07 06:58:26;;;;;;;18.45;4.30;;;27.90;99.90;;;;;;4969113;28;20050;-76
2022/01/07 07:00:54;;;;;;;15.88;4.22;;;28.00;99.90;;;;;;4970675;28;20027;-73
2022/01/07 07:03:21;;;;;;;15.90;4.72;;;28.00;99.90;;;;;;4970185;28;20030;-75
2022/01/07 07:05:49;;;;;;;9.80;2.25;;;27.90;99.90;;;;;;4970455;28;20493;-74
2022/01/07 07:08:16;;;;;;;11.35;2.83;;;27.80;99.90;;;;;;4967844;28;20039;-72
2022/01/07 07:10:43;;;;;;;13.93;4.32;;;27.90;99.90;;;;;;4973388;28;20029;-72
2022/01/07 07:13:11;;;;;;;14.18;4.28;;;27.90;99.90;;;;;;4961020;28;20097;-76
2022/01/07 07:15:38;;;;;;;10.07;2.72;;;27.80;99.90;;;;;;4966575;28;20460;-75
2022/01/07 07:18:05;;;;;;;13.82;3.80;;;27.70;99.90;;;;;;4966439;28;20081;-73
2022/01/07 07:20:33;;;;;;;15.15;3.50;;;27.60;99.90;;;;;;4975217;28;20030;-74
2022/01/07 07:23:00;;;;;;;14.70;2.90;;;27.50;99.90;;;;;;4968650;28;20125;-73
2022/01/07 07:25:27;;;;;;;15.40;2.97;;;27.40;99.90;;;;;;4973386;28;20043;-73
2022/01/07 07:27:55;;;;;;;10.45;2.60;;;27.30;99.90;;;;;;4966676;28;20106;-76
2022/01/07 07:30:23;;;;;;;11.52;3.63;;;27.30;99.90;;;;;;4971031;28;20030;-74
2022/01/07 07:32:53;;;;;;;18.23;3.20;;;27.20;99.90;;;;;;4962885;28;20478;-75
2022/01/07 07:37:49;;;;;;;12.35;2.95;;;27.00;99.90;;;;;;4968631;28;20022;-75
2022/01/07 07:40:17;;;;;;;15.32;3.22;;;27.00;99.90;;;;;;4975332;28;20026;-74
2022/01/07 07:42:45;;;;;;;11.18;2.95;;;26.90;99.90;;;;;;4969736;28;20355;-75
2022/01/07 07:45:13;;;;;;;17.20;3.85;;;26.90;99.90;;;;;;4963477;28;20026;-73
2022/01/07 07:47:42;;;;;;;11.75;3.80;;;26.90;99.90;;;;;;4963689;28;20030;-71
2022/01/07 07:50:09;;;;;;;11.95;3.00;;;26.90;99.90;;;;;;4968756;28;20022;-72
2022/01/07 07:52:37;;;;;;;13.43;3.00;;;26.90;99.90;;;;;;4965066;28;20780;-72
2022/01/07 07:55:05;;;;;;;12.68;2.72;;;26.80;99.90;;;;;;4970709;28;20031;-74
2022/01/07 07:57:32;;;;;;;14.07;3.42;;;26.70;99.90;;;;;;4966306;28;20043;-75
2022/01/07 07:59:59;;;;;;;14.88;3.40;;;26.70;99.90;;;;;;4968886;28;20046;-73
2022/01/07 08:02:30;;;;;;;22.13;4.28;;;26.60;99.90;;;;;;4966499;28;20070;-71
2022/01/07 08:04:58;;;;;;;12.80;3.85;;;26.60;99.90;;;;;;4964242;28;20493;-74
2022/01/07 08:07:25;;;;;;;19.90;2.78;;;26.50;99.90;;;;;;4980112;28;20030;-73
2022/01/07 08:09:53;;;;;;;15.32;4.00;;;26.60;99.90;;;;;;4973080;28;20031;-74
2022/01/07 08:12:28;;;;;;;13.00;3.33;;;26.60;99.90;;;;;;4976408;28;20031;-74
2022/01/07 08:17:41;;;;;;;21.65;4.47;;;26.60;99.90;;;;;;4969852;28;20509;-72
2022/01/07 08:20:08;;;;;;;9.50;2.53;;;26.50;99.90;;;;;;4970942;28;20041;-72
2022/01/07 08:22:36;;;;;;;16.77;2.72;;;26.40;99.90;;;;;;4967822;28;20062;-77
2022/01/07 08:25:04;;;;;;;12.45;2.95;;;26.30;99.90;;;;;;4967734;28;20073;-78
2022/01/07 08:27:32;;;;;;;12.18;2.75;;;26.20;99.90;;;;;;4968145;28;20082;-77
2022/01/07 08:30:05;;;;;;;18.15;3.63;;;26.20;99.90;;;;;;4968688;28;20035;-75
2022/01/07 08:35:18;;;;;;;18.25;3.63;;;26.00;99.90;;;;;;4970237;28;20093;-76
2022/01/07 08:37:45;;;;;;;14.20;3.78;;;26.00;99.90;;;;;;4971693;28;20113;-75
2022/01/07 08:40:13;;;;;;;18.98;3.15;;;25.90;99.90;;;;;;4981958;28;20482;-75
2022/01/07 08:42:41;;;;;;;13.43;3.75;;;25.80;99.90;;;;;;4976742;28;20023;-76
2022/01/07 08:45:08;;;;;;;9.90;2.20;;;25.70;99.90;;;;;;4969003;28;20105;-75
2022/01/07 08:47:35;;;;;;;14.65;3.40;;;25.70;99.90;;;;;;4973845;28;20027;-76
2022/01/07 08:50:04;;;;;;;18.17;3.35;;;25.70;99.90;;;;;;4970128;28;20093;-76
2022/01/07 08:52:31;;;;;;;13.38;3.35;;;25.60;99.90;;;;;;4971796;28;20050;-77
2022/01/07 08:54:58;;;;;;;19.85;4.40;;;25.60;99.90;;;;;;4978367;28;20034;-75
2022/01/07 08:57:26;;;;;;;11.75;3.00;;;25.60;99.90;;;;;;4962345;28;20379;-78
2022/01/07 08:59:53;;;;;;;28.13;4.65;;;25.60;99.90;;;;;;4969443;28;20030;-77
2022/01/07 09:02:20;;;;;;;14.38;3.15;;;25.70;99.90;;;;;;4966347;28;20019;-78
2022/01/07 09:04:48;;;;;;;12.88;3.20;;;25.70;99.90;;;;;;4972201;28;20034;-76
2022/01/07 09:07:15;;;;;;;18.33;3.15;;;25.70;99.90;;;;;;4967400;28;20085;-78
2022/01/07 09:09:43;;;;;;;15.27;3.10;;;25.70;99.90;;;;;;4962841;28;20081;-78
2022/01/07 09:12:10;;;;;;;14.02;3.45;;;25.60;99.90;;;;;;4963526;28;20474;-74
2022/01/07 09:14:38;;;;;;;10.68;3.17;;;25.60;99.90;;;;;;4963862;28;20081;-77
2022/01/07 09:17:06;;;;;;;13.23;3.28;;;25.60;99.90;;;;;;4969002;28;20023;-78
2022/01/07 09:19:33;;;;;;;12.05;2.90;;;25.40;99.90;;;;;;4960714;28;20030;-72
2022/01/07 09:22:01;;;;;;;13.98;3.03;;;25.50;99.90;;;;;;4969995;28;20033;-76
2022/01/07 09:24:29;;;;;;;14.90;3.55;;;25.40;99.90;;;;;;4966144;28;20049;-75
2022/01/07 09:26:58;;;;;;;12.55;3.50;;;25.40;99.90;;;;;;4965265;28;20042;-74
2022/01/07 09:29:27;;;;;;;24.25;5.38;;;25.40;99.90;;;;;;4965984;28;20051;-76
2022/01/07 09:31:55;;;;;;;19.33;4.15;;;25.40;99.90;;;;;;4962486;28;20038;-73
2022/01/07 09:34:22;;;;;;;12.65;3.55;;;25.30;99.90;;;;;;4960985;28;20023;-73
2022/01/07 09:36:50;;;;;;;20.45;4.43;;;25.40;99.90;;;;;;4963937;28;20811;-74
2022/01/07 09:39:17;;;;;;;10.15;2.28;;;25.40;99.90;;;;;;4959326;28;20027;-75
2022/01/07 09:41:46;;;;;;;12.45;3.60;;;25.40;99.90;;;;;;4961426;28;20107;-76
2022/01/07 09:44:14;;;;;;;15.43;3.63;;;25.40;99.90;;;;;;4966477;28;20038;-75
2022/01/07 09:46:43;;;;;;;15.60;4.85;;;25.40;99.90;;;;;;4963011;28;20061;-73
2022/01/07 09:49:11;;;;;;;19.33;4.07;;;25.30;99.90;;;;;;4963191;28;20065;-75
2022/01/07 09:51:40;;;;;;;20.23;3.83;;;25.30;99.90;;;;;;4967032;28;20985;-73
2022/01/07 09:54:08;;;;;;;21.73;4.43;;;25.30;99.90;;;;;;4964993;28;20505;-78
2022/01/07 09:56:36;;;;;;;12.45;3.17;;;25.30;99.90;;;;;;4965298;28;20133;-74
2022/01/07 09:59:05;;;;;;;23.67;4.32;;;25.30;99.90;;;;;;4962062;28;20478;-72
2022/01/07 10:02:05;;;;;;;17.30;3.30;;;25.40;99.90;;;;;;4963199;28;20039;-71
2022/01/07 10:04:41;;;;;;;14.38;2.70;;;25.40;99.90;;;;;;4959644;28;20114;-74
2022/01/07 10:07:29;;;;;;;;;;;25.40;99.90;;;;;;4969391;28;20070;-72
2022/01/07 10:09:59;;;;;;;12.35;3.85;;;25.30;99.90;;;;;;4963396;28;19925;-73
2022/01/07 10:12:29;;;;;;;16.10;3.67;;;25.20;99.90;;;;;;4968440;28;20153;-72
2022/01/07 10:15:19;;;;;;;17.85;2.92;;;25.10;99.90;;;;;;4973508;28;20121;-74
2022/01/07 10:18:07;;;;;;;23.63;3.15;;;25.10;99.90;;;;;;4967466;28;20023;-75
2022/01/07 10:20:41;;;;;;;15.65;3.95;;;25.20;99.90;;;;;;4972484;28;20023;-73
2022/01/07 10:23:24;;;;;;;21.08;3.33;;;25.20;99.90;;;;;;4965494;28;20053;-75
2022/01/07 10:25:56;;;;;;;17.75;3.92;;;25.30;99.90;;;;;;4962750;28;20700;-74
2022/01/07 10:28:30;;;;;;;12.35;3.72;;;25.20;99.90;;;;;;4965428;28;20109;-74
2022/01/07 10:31:02;;;;;;;19.38;3.50;;;25.10;99.90;;;;;;4965631;28;20034;-79
2022/01/07 10:33:37;;;;;;;12.25;2.95;;;25.10;99.90;;;;;;4962341;28;20028;-72
2022/01/07 10:36:07;;;;;;;15.57;4.00;;;25.20;99.90;;;;;;4962073;28;20488;-77
2022/01/07 10:38:47;;;;;;;16.15;3.97;;;25.30;99.90;;;;;;4967064;28;20086;-74
2022/01/07 10:41:15;;;;;;;17.20;6.00;;;25.40;99.90;;;;;;4968189;28;20470;-76
2022/01/07 10:43:43;;;;;;;17.02;3.85;;;25.50;99.90;;;;;;4966111;28;20026;-74
2022/01/07 10:46:30;;;;;;;12.52;3.22;;;25.40;99.90;;;;;;4984008;28;20037;-77
2022/01/07 10:49:03;;;;;;;16.02;3.97;;;25.30;99.90;;;;;;4971800;28;20037;-73
2022/01/07 10:51:33;;;;;;;20.30;4.85;;;25.40;99.90;;;;;;4966546;28;20482;-73
2022/01/07 10:54:04;;;;;;;12.18;3.13;;;25.40;99.90;;;;;;4968679;28;20500;-75
2022/01/07 10:56:50;;;;;;;13.52;2.88;;;25.50;99.90;;;;;;4973940;28;20030;-75
2022/01/07 10:59:19;;;;;;;11.85;3.50;;;25.40;99.90;;;;;;4968129;28;20027;-74
2022/01/07 11:01:57;;;;;;;16.58;3.70;;;25.50;99.90;;;;;;4970040;28;20124;-76
2022/01/07 11:04:27;;;;;;;18.27;2.75;;;25.40;99.90;;;;;;4973313;28;20022;-74
2022/01/07 11:06:58;;;;;;;11.68;2.90;;;25.40;99.90;;;;;;4972730;28;20052;-74
2022/01/07 11:09:25;;;;;;;11.85;4.32;;;25.40;99.90;;;;;;4965588;28;20030;-77
2022/01/07 11:11:54;;;;;;;15.63;3.10;;;25.50;99.90;;;;;;4976365;28;20034;-76
2022/01/07 11:14:37;;;;;;;19.70;3.85;;;25.50;99.90;;;;;;4971781;28;20496;-73
2022/01/07 11:17:08;;;;;;;12.45;3.10;;;25.40;99.90;;;;;;4975080;28;20123;-76
2022/01/07 11:19:42;;;;;;;12.85;3.20;;;25.40;99.90;;;;;;4972738;28;20027;-73
2022/01/07 11:22:14;;;;;;;17.70;2.50;;;25.40;99.90;;;;;;4974208;28;20113;-73
2022/01/07 11:24:46;;;;;;;11.43;2.78;;;25.40;99.90;;;;;;4972717;28;20074;-73
2022/01/07 11:27:28;;;;;;;9.02;2.80;;;25.30;99.90;;;;;;4975793;28;20039;-75
2022/01/07 11:30:04;;;;;;;13.63;3.30;;;25.40;99.90;;;;;;4970009;28;20030;-77
2022/01/07 11:32:37;;;;;;;6.90;2.00;;;25.30;99.90;;;;;;4967037;28;20027;-72
2022/01/07 11:35:20;;;;;;;0.55;0.20;;;25.10;99.90;;;;;;4968364;28;20088;-74
2022/01/07 11:37:48;;;;;;;0.68;0.10;;;24.70;99.90;;;;;;4968968;28;20019;-76
2022/01/07 11:40:33;;;;;;;1.00;0.30;;;24.50;99.90;;;;;;4973048;28;20553;-75
2022/01/07 11:43:05;;;;;;;1.35;0.80;;;24.00;99.90;;;;;;4963830;28;20638;-73
2022/01/07 11:45:42;;;;;;;0.00;0.00;;;23.60;99.90;;;;;;4961542;28;20043;-73
2022/01/07 11:48:24;;;;;;;0.73;0.20;;;23.20;99.90;;;;;;4965941;28;20057;-76
2022/01/07 11:51:00;;;;;;;0.95;0.00;;;22.90;99.90;;;;;;4961159;28;20027;-76
2022/01/07 11:53:50;;;;;;;5.85;0.50;;;22.60;99.90;;;;;;4969526;28;20497;-75
2022/01/07 11:56:21;;;;;;;0.85;0.10;;;22.50;99.90;;;;;;4965169;28;20089;-73
2022/01/07 11:58:55;;;;;;;0.30;0.10;;;22.40;99.90;;;;;;4964180;28;20370;-72
2022/01/07 12:01:35;;;;;;;1.55;0.10;;;22.30;99.90;;;;;;4964921;28;20378;-74
2022/01/07 12:04:26;;;;;;;0.73;0.68;;;22.20;99.90;;;;;;4968606;28;20093;-73
2022/01/07 12:06:56;;;;;;;0.75;0.28;;;22.20;99.90;;;;;;4970039;28;20043;-73
2022/01/07 12:09:34;;;;;;;0.60;0.25;;;22.20;99.90;;;;;;4961957;28;20042;-74
2022/01/07 12:12:05;;;;;;;1.50;0.25;;;22.10;99.90;;;;;;4968953;28;20501;-72
2022/01/07 12:14:52;;;;;;;0.40;0.22;;;22.00;99.90;;;;;;4969578;28;20497;-72
2022/01/07 12:17:22;;;;;;;1.80;0.25;;;22.00;99.90;;;;;;4974723;28;20105;-74
2022/01/07 12:19:50;;;;;;;0.50;0.40;;;21.90;99.90;;;;;;4961300;28;20030;-74
2022/01/07 12:22:18;;;;;;;1.85;0.20;;;21.80;99.90;;;;;;4964898;28;20019;-76
2022/01/07 12:24:47;;;;;;;3.25;1.38;;;21.80;99.90;;;;;;4968210;28;20042;-76
2022/01/07 12:27:23;;;;;;;1.48;0.30;;;21.80;99.90;;;;;;4968508;28;20042;-73
2022/01/07 12:29:53;;;;;;;1.63;0.30;;;21.70;99.90;;;;;;4969196;28;20105;-78
2022/01/07 12:32:28;;;;;;;1.55;0.45;;;21.60;99.90;;;;;;4965495;28;20371;-77
2022/01/07 12:34:55;;;;;;;3.00;0.47;;;21.60;99.90;;;;;;4964179;28;20042;-76
2022/01/07 12:37:25;;;;;;;0.98;0.30;;;21.60;99.90;;;;;;4966318;28;20045;-73
2022/01/07 12:40:01;;;;;;;3.03;0.70;;;21.50;99.90;;;;;;4963088;28;20033;-77
2022/01/07 12:42:30;;;;;;;2.35;0.50;;;21.30;99.90;;;;;;4968203;28;20027;-77
2022/01/07 12:44:59;;;;;;;3.08;0.55;;;21.40;99.90;;;;;;4968275;28;20073;-76
2022/01/07 12:47:30;;;;;;;2.50;0.30;;;21.50;99.90;;;;;;4970383;28;20117;-76
2022/01/07 12:50:03;;;;;;;3.72;0.82;;;21.50;99.90;;;;;;4964810;28;20387;-77
2022/01/07 12:52:33;;;;;;;1.77;0.68;;;21.40;99.90;;;;;;4955891;28;20035;-78
2022/01/07 12:55:09;;;;;;;1.65;0.75;;;21.40;99.90;;;;;;4954926;28;20023;-75
2022/01/07 12:57:58;;;;;;;3.42;0.60;;;21.70;99.90;;;;;;4961514;28;20031;-77
2022/01/07 13:00:32;;;;;;;1.58;0.55;;;21.90;99.90;;;;;;4961999;28;20031;-78